La Push, WA

4:45 AM PDT on July 29, 2016 (GMT -0700)
Quillayute | | Change Station

Elev 194 ft 47.94 °N, 124.56 °W | Updated 3 minutes ago

Fog
Fog
54 °F
Feels Like 54 °F
N
0
Wind Variable Wind from North

Today
High -- | Low -- °F
--% Chance of Precip.
Yesterday
High -- | Low -- °F
Precip. -- in
Pressure 30.03 in
Visibility 0.2 miles
Clouds
Dew Point 54 °F
Humidity 100%
Rainfall 0.00 in
Snow Depth Not available.
5:52 AM 8:57 PM
Waning Crescent, 22% visible
SPECI KUIL 291142Z AUTO 00000KT 1/4SM FG VV003 12/12 A3003 RMK AO2 T01220122
Pressure 30.03 in
Visibility 0.2 miles
Clouds
Dew Point 54 °F
Humidity 100%
Rainfall 0.00 in
Snow Depth Not available.
5:52 AM 8:57 PM
Waning Crescent, 22% visible
SPECI KUIL 291142Z AUTO 00000KT 1/4SM FG VV003 12/12 A3003 RMK AO2 T01220122

10-Day Weather Forecast

Almanac

Astronomy

Jul. 29, 2016 Rise Set
Actual Time
Civil Twilight
Nautical Twilight
Astronomical Twilight
Moon
Length of Visible Light
Length of Day
Tomorrow will be .
, % of the Moon is Illuminated

Today's Extremes

State Highs State Lows

Community

WunderPhotos

Upload Photos

1,928,325 photos uploaded!

WunderBlog® & News

Nearby

Air Quality

  Air Quality AQ Index Pollutant
Not available.

Snow Depth

Station Depth Elevation

Earthquake Activity

City Distance Mag. Time & Date
Minimum magnitude displayed is 2.5.

Coastal Water Temperatures

Place Temperature

Stations

Nearby Weather Stations

Station Location Temp. Windchill Dew Point Humidity Wind Precip. Elev Updated Type
                   

Watches & Warnings

There are currently no watches in effect.